sensor_id;sensor_type;location;lat;lon;timestamp;temperature;humidity
9125;DHT22;4597;48.730;9.114;2024-03-08T00:01:49;3.80;99.90
9125;DHT22;4597;48.730;9.114;2024-03-08T00:04:15;3.80;99.90
9125;DHT22;4597;48.730;9.114;2024-03-08T00:06:41;3.80;99.90
9125;DHT22;4597;48.730;9.114;2024-03-08T00:09:06;3.80;99.90
9125;DHT22;4597;48.730;9.114;2024-03-08T00:11:33;3.70;99.90
9125;DHT22;4597;48.730;9.114;2024-03-08T00:14:00;3.70;99.90
9125;DHT22;4597;48.730;9.114;2024-03-08T00:16:25;3.70;99.90
9125;DHT22;4597;48.730;9.114;2024-03-08T00:18:51;3.60;99.90
9125;DHT22;4597;48.730;9.114;2024-03-08T00:21:16;3.60;99.90
9125;DHT22;4597;48.730;9.114;2024-03-08T00:23:42;3.60;99.90
9125;DHT22;4597;48.730;9.114;2024-03-08T00:26:07;3.60;99.90
9125;DHT22;4597;48.730;9.114;2024-03-08T00:28:33;3.50;99.90
9125;DHT22;4597;48.730;9.114;2024-03-08T00:31:00;3.50;99.90
9125;DHT22;4597;48.730;9.114;2024-03-08T00:33:25;3.50;99.90
9125;DHT22;4597;48.730;9.114;2024-03-08T00:35:51;3.40;99.90
9125;DHT22;4597;48.730;9.114;2024-03-08T00:38:16;3.40;99.90
9125;DHT22;4597;48.730;9.114;2024-03-08T00:40:44;3.40;99.90
9125;DHT22;4597;48.730;9.114;2024-03-08T00:43:09;3.40;99.90
9125;DHT22;4597;48.730;9.114;2024-03-08T00:45:35;3.30;99.90
9125;DHT22;4597;48.730;9.114;2024-03-08T00:48:02;3.40;99.90
9125;DHT22;4597;48.730;9.114;2024-03-08T00:50:28;3.30;99.90
9125;DHT22;4597;48.730;9.114;2024-03-08T00:52:53;3.30;99.90
9125;DHT22;4597;48.730;9.114;2024-03-08T00:55:19;3.20;99.90
9125;DHT22;4597;48.730;9.114;2024-03-08T00:57:45;3.20;99.90
9125;DHT22;4597;48.730;9.114;2024-03-08T01:00:11;3.10;99.90
9125;DHT22;4597;48.730;9.114;2024-03-08T01:02:38;3.10;99.90
9125;DHT22;4597;48.730;9.114;2024-03-08T01:05:04;3.10;99.90
9125;DHT22;4597;48.730;9.114;2024-03-08T01:07:33;3.00;99.90
9125;DHT22;4597;48.730;9.114;2024-03-08T01:09:59;3.00;99.90
9125;DHT22;4597;48.730;9.114;2024-03-08T01:12:26;3.00;99.90
9125;DHT22;4597;48.730;9.114;2024-03-08T01:14:51;3.00;99.90
9125;DHT22;4597;48.730;9.114;2024-03-08T01:17:17;3.00;99.90
9125;DHT22;4597;48.730;9.114;2024-03-08T01:19:42;3.00;99.90
9125;DHT22;4597;48.730;9.114;2024-03-08T01:22:10;3.00;99.90
9125;DHT22;4597;48.730;9.114;2024-03-08T01:24:36;2.90;99.90
9125;DHT22;4597;48.730;9.114;2024-03-08T01:27:02;2.90;99.90
9125;DHT22;4597;48.730;9.114;2024-03-08T01:29:28;2.90;99.90
9125;DHT22;4597;48.730;9.114;2024-03-08T01:31:55;2.90;99.90
9125;DHT22;4597;48.730;9.114;2024-03-08T01:34:21;2.80;99.90
9125;DHT22;4597;48.730;9.114;2024-03-08T01:36:48;2.80;99.90
9125;DHT22;4597;48.730;9.114;2024-03-08T01:39:14;2.80;99.90
9125;DHT22;4597;48.730;9.114;2024-03-08T01:41:39;2.80;99.90
9125;DHT22;4597;48.730;9.114;2024-03-08T01:44:05;2.80;99.90
9125;DHT22;4597;48.730;9.114;2024-03-08T01:46:33;2.80;99.90
9125;DHT22;4597;48.730;9.114;2024-03-08T01:49:00;2.80;99.90
9125;DHT22;4597;48.730;9.114;2024-03-08T01:51:27;2.70;99.90
9125;DHT22;4597;48.730;9.114;2024-03-08T01:53:55;2.60;99.90
9125;DHT22;4597;48.730;9.114;2024-03-08T01:56:21;2.60;99.90
9125;DHT22;4597;48.730;9.114;2024-03-08T01:58:46;2.60;99.90
9125;DHT22;4597;48.730;9.114;2024-03-08T02:01:12;2.60;99.90
9125;DHT22;4597;48.730;9.114;2024-03-08T02:03:41;2.60;99.90
9125;DHT22;4597;48.730;9.114;2024-03-08T02:06:10;2.60;99.90
9125;DHT22;4597;48.730;9.114;2024-03-08T02:08:36;2.50;99.90
9125;DHT22;4597;48.730;9.114;2024-03-08T02:11:07;2.60;99.90
9125;DHT22;4597;48.730;9.114;2024-03-08T02:13:33;2.50;99.90
9125;DHT22;4597;48.730;9.114;2024-03-08T02:16:00;2.50;99.90
9125;DHT22;4597;48.730;9.114;2024-03-08T02:18:27;2.50;99.90
9125;DHT22;4597;48.730;9.114;2024-03-08T02:20:58;2.40;99.90
9125;DHT22;4597;48.730;9.114;2024-03-08T02:23:24;2.50;99.90
9125;DHT22;4597;48.730;9.114;2024-03-08T02:25:51;2.50;99.90
9125;DHT22;4597;48.730;9.114;2024-03-08T02:28:17;2.50;99.90
9125;DHT22;4597;48.730;9.114;2024-03-08T02:30:44;2.40;99.90
9125;DHT22;4597;48.730;9.114;2024-03-08T02:33:14;2.40;99.90
9125;DHT22;4597;48.730;9.114;2024-03-08T02:35:42;2.40;99.90
9125;DHT22;4597;48.730;9.114;2024-03-08T02:38:14;2.40;99.90
9125;DHT22;4597;48.730;9.114;2024-03-08T02:40:47;2.30;99.90
9125;DHT22;4597;48.730;9.114;2024-03-08T02:43:14;2.40;99.90
9125;DHT22;4597;48.730;9.114;2024-03-08T02:45:40;2.30;99.90
9125;DHT22;4597;48.730;9.114;2024-03-08T02:48:07;2.30;99.90
9125;DHT22;4597;48.730;9.114;2024-03-08T02:50:33;2.30;99.90
9125;DHT22;4597;48.730;9.114;2024-03-08T02:53:00;2.30;99.90
9125;DHT22;4597;48.730;9.114;2024-03-08T02:55:26;2.30;99.90
9125;DHT22;4597;48.730;9.114;2024-03-08T02:57:52;2.20;99.90
9125;DHT22;4597;48.730;9.114;2024-03-08T03:00:20;2.20;99.90
9125;DHT22;4597;48.730;9.114;2024-03-08T03:02:46;2.20;99.90
9125;DHT22;4597;48.730;9.114;2024-03-08T03:05:12;2.20;99.90
9125;DHT22;4597;48.730;9.114;2024-03-08T03:07:38;2.20;99.90
9125;DHT22;4597;48.730;9.114;2024-03-08T03:10:04;2.10;99.90
9125;DHT22;4597;48.730;9.114;2024-03-08T03:12:30;2.10;99.90
9125;DHT22;4597;48.730;9.114;2024-03-08T03:14:57;2.00;99.90
9125;DHT22;4597;48.730;9.114;2024-03-08T03:17:26;2.00;99.90
9125;DHT22;4597;48.730;9.114;2024-03-08T03:19:52;2.00;99.90
9125;DHT22;4597;48.730;9.114;2024-03-08T03:22:18;2.00;99.90
9125;DHT22;4597;48.730;9.114;2024-03-08T03:24:45;2.00;99.90
9125;DHT22;4597;48.730;9.114;2024-03-08T03:27:12;2.00;99.90
9125;DHT22;4597;48.730;9.114;2024-03-08T03:29:41;1.90;99.90
9125;DHT22;4597;48.730;9.114;2024-03-08T03:32:11;2.00;99.90
9125;DHT22;4597;48.730;9.114;2024-03-08T03:34:37;2.10;99.90
9125;DHT22;4597;48.730;9.114;2024-03-08T03:37:03;2.00;99.90
9125;DHT22;4597;48.730;9.114;2024-03-08T03:39:30;2.00;99.90
9125;DHT22;4597;48.730;9.114;2024-03-08T03:42:02;1.90;99.90
9125;DHT22;4597;48.730;9.114;2024-03-08T03:44:28;1.90;99.90
9125;DHT22;4597;48.730;9.114;2024-03-08T03:46:54;1.90;99.90
9125;DHT22;4597;48.730;9.114;2024-03-08T03:49:20;1.90;99.90
9125;DHT22;4597;48.730;9.114;2024-03-08T03:51:46;1.90;99.90
9125;DHT22;4597;48.730;9.114;2024-03-08T03:54:12;1.90;99.90
9125;DHT22;4597;48.730;9.114;2024-03-08T03:56:38;1.80;99.90
9125;DHT22;4597;48.730;9.114;2024-03-08T03:59:05;1.80;99.90
9125;DHT22;4597;48.730;9.114;2024-03-08T04:01:32;1.80;99.90
9125;DHT22;4597;48.730;9.114;2024-03-08T04:03:57;1.70;99.90
9125;DHT22;4597;48.730;9.114;2024-03-08T04:06:23;1.80;99.90
9125;DHT22;4597;48.730;9.114;2024-03-08T04:08:49;1.80;99.90
9125;DHT22;4597;48.730;9.114;2024-03-08T04:11:14;1.70;99.90
9125;DHT22;4597;48.730;9.114;2024-03-08T04:13:42;1.70;99.90
9125;DHT22;4597;48.730;9.114;2024-03-08T04:16:08;1.70;99.90
9125;DHT22;4597;48.730;9.114;2024-03-08T04:18:34;1.80;99.90
9125;DHT22;4597;48.730;9.114;2024-03-08T04:21:07;1.70;99.90
9125;DHT22;4597;48.730;9.114;2024-03-08T04:23:33;1.70;99.90
9125;DHT22;4597;48.730;9.114;2024-03-08T04:26:01;1.70;99.90
9125;DHT22;4597;48.730;9.114;2024-03-08T04:28:27;1.60;99.90
9125;DHT22;4597;48.730;9.114;2024-03-08T04:30:52;1.60;99.90
9125;DHT22;4597;48.730;9.114;2024-03-08T04:33:17;1.60;99.90
9125;DHT22;4597;48.730;9.114;2024-03-08T04:35:43;1.60;99.90
9125;DHT22;4597;48.730;9.114;2024-03-08T04:38:11;1.60;99.90
9125;DHT22;4597;48.730;9.114;2024-03-08T04:40:36;1.50;99.90
9125;DHT22;4597;48.730;9.114;2024-03-08T04:43:02;1.50;99.90
9125;DHT22;4597;48.730;9.114;2024-03-08T04:45:28;1.50;99.90
9125;DHT22;4597;48.730;9.114;2024-03-08T04:47:53;1.50;99.90
9125;DHT22;4597;48.730;9.114;2024-03-08T04:50:19;1.50;99.90
9125;DHT22;4597;48.730;9.114;2024-03-08T04:52:44;1.50;99.90
9125;DHT22;4597;48.730;9.114;2024-03-08T04:55:10;1.40;99.90
9125;DHT22;4597;48.730;9.114;2024-03-08T04:57:35;1.30;99.90
9125;DHT22;4597;48.730;9.114;2024-03-08T05:00:02;1.30;99.90
9125;DHT22;4597;48.730;9.114;2024-03-08T05:02:32;1.20;99.90
9125;DHT22;4597;48.730;9.114;2024-03-08T05:04:58;1.20;99.90
9125;DHT22;4597;48.730;9.114;2024-03-08T05:07:23;1.20;99.90
9125;DHT22;4597;48.730;9.114;2024-03-08T05:09:49;1.10;99.90
9125;DHT22;4597;48.730;9.114;2024-03-08T05:12:18;1.10;99.90
9125;DHT22;4597;48.730;9.114;2024-03-08T05:14:47;1.00;99.90
9125;DHT22;4597;48.730;9.114;2024-03-08T05:17:16;1.00;99.90
9125;DHT22;4597;48.730;9.114;2024-03-08T05:19:44;1.00;99.90
9125;DHT22;4597;48.730;9.114;2024-03-08T05:22:10;1.00;99.90
9125;DHT22;4597;48.730;9.114;2024-03-08T05:24:36;1.00;99.90
9125;DHT22;4597;48.730;9.114;2024-03-08T05:27:01;1.00;99.90
9125;DHT22;4597;48.730;9.114;2024-03-08T05:29:29;1.00;99.90
9125;DHT22;4597;48.730;9.114;2024-03-08T05:31:54;1.00;99.90
9125;DHT22;4597;48.730;9.114;2024-03-08T05:34:20;1.00;99.90
9125;DHT22;4597;48.730;9.114;2024-03-08T05:36:47;1.00;99.90
9125;DHT22;4597;48.730;9.114;2024-03-08T05:39:15;1.00;99.90
9125;DHT22;4597;48.730;9.114;2024-03-08T05:41:41;0.90;99.90
9125;DHT22;4597;48.730;9.114;2024-03-08T05:44:08;0.90;99.90
9125;DHT22;4597;48.730;9.114;2024-03-08T05:46:34;0.90;99.90
9125;DHT22;4597;48.730;9.114;2024-03-08T05:49:01;0.90;99.90
9125;DHT22;4597;48.730;9.114;2024-03-08T05:51:33;0.90;99.90
9125;DHT22;4597;48.730;9.114;2024-03-08T05:54:06;0.90;99.90
9125;DHT22;4597;48.730;9.114;2024-03-08T05:56:32;0.90;99.90
9125;DHT22;4597;48.730;9.114;2024-03-08T05:58:58;0.90;99.90
9125;DHT22;4597;48.730;9.114;2024-03-08T06:01:27;0.90;99.90
9125;DHT22;4597;48.730;9.114;2024-03-08T06:03:54;0.80;99.90
9125;DHT22;4597;48.730;9.114;2024-03-08T06:06:23;0.80;99.90
9125;DHT22;4597;48.730;9.114;2024-03-08T06:08:49;0.90;99.90
9125;DHT22;4597;48.730;9.114;2024-03-08T06:11:16;0.90;99.90
9125;DHT22;4597;48.730;9.114;2024-03-08T06:13:43;0.90;99.90
9125;DHT22;4597;48.730;9.114;2024-03-08T06:16:09;0.90;99.90
9125;DHT22;4597;48.730;9.114;2024-03-08T06:18:35;1.00;99.90
9125;DHT22;4597;48.730;9.114;2024-03-08T06:21:05;0.90;99.90
9125;DHT22;4597;48.730;9.114;2024-03-08T06:23:34;1.00;99.90
9125;DHT22;4597;48.730;9.114;2024-03-08T06:26:04;1.10;99.90
9125;DHT22;4597;48.730;9.114;2024-03-08T06:28:29;1.10;99.90
9125;DHT22;4597;48.730;9.114;2024-03-08T06:30:55;1.00;99.90
9125;DHT22;4597;48.730;9.114;2024-03-08T06:33:20;1.00;99.90
9125;DHT22;4597;48.730;9.114;2024-03-08T06:35:46;1.00;99.90
9125;DHT22;4597;48.730;9.114;2024-03-08T06:38:11;1.00;99.90
9125;DHT22;4597;48.730;9.114;2024-03-08T06:40:37;1.10;99.90
9125;DHT22;4597;48.730;9.114;2024-03-08T06:43:02;1.10;99.90
9125;DHT22;4597;48.730;9.114;2024-03-08T06:45:31;1.10;99.90
9125;DHT22;4597;48.730;9.114;2024-03-08T06:47:57;1.10;99.90
9125;DHT22;4597;48.730;9.114;2024-03-08T06:50:22;1.10;99.90
9125;DHT22;4597;48.730;9.114;2024-03-08T06:52:47;1.20;99.90
9125;DHT22;4597;48.730;9.114;2024-03-08T06:55:19;1.20;99.90
9125;DHT22;4597;48.730;9.114;2024-03-08T06:57:45;1.30;99.90
9125;DHT22;4597;48.730;9.114;2024-03-08T07:00:11;1.30;99.90
9125;DHT22;4597;48.730;9.114;2024-03-08T07:02:41;1.30;99.90
9125;DHT22;4597;48.730;9.114;2024-03-08T07:05:07;1.40;99.90
9125;DHT22;4597;48.730;9.114;2024-03-08T07:07:35;1.40;99.90
9125;DHT22;4597;48.730;9.114;2024-03-08T07:10:01;1.50;99.90
9125;DHT22;4597;48.730;9.114;2024-03-08T07:12:26;1.60;99.90
9125;DHT22;4597;48.730;9.114;2024-03-08T07:14:52;1.70;99.90
9125;DHT22;4597;48.730;9.114;2024-03-08T07:17:18;1.60;99.90
9125;DHT22;4597;48.730;9.114;2024-03-08T07:19:44;1.70;99.90
9125;DHT22;4597;48.730;9.114;2024-03-08T07:22:09;1.80;99.90
9125;DHT22;4597;48.730;9.114;2024-03-08T07:24:35;1.80;99.90
9125;DHT22;4597;48.730;9.114;2024-03-08T07:27:19;1.90;99.90
9125;DHT22;4597;48.730;9.114;2024-03-08T07:29:45;2.10;99.90
9125;DHT22;4597;48.730;9.114;2024-03-08T07:32:11;2.20;99.90
9125;DHT22;4597;48.730;9.114;2024-03-08T07:34:50;2.40;99.90
9125;DHT22;4597;48.730;9.114;2024-03-08T07:37:17;2.50;99.90
9125;DHT22;4597;48.730;9.114;2024-03-08T07:39:43;2.70;99.90
9125;DHT22;4597;48.730;9.114;2024-03-08T07:42:09;2.80;99.90
9125;DHT22;4597;48.730;9.114;2024-03-08T07:44:35;3.00;99.90
9125;DHT22;4597;48.730;9.114;2024-03-08T07:47:00;3.10;99.90
9125;DHT22;4597;48.730;9.114;2024-03-08T07:49:26;3.30;99.90
9125;DHT22;4597;48.730;9.114;2024-03-08T07:51:52;3.40;99.90
9125;DHT22;4597;48.730;9.114;2024-03-08T07:54:17;3.60;99.90
9125;DHT22;4597;48.730;9.114;2024-03-08T07:56:43;3.60;99.90
9125;DHT22;4597;48.730;9.114;2024-03-08T07:59:08;3.80;99.90
9125;DHT22;4597;48.730;9.114;2024-03-08T08:01:34;3.90;99.90
9125;DHT22;4597;48.730;9.114;2024-03-08T08:03:59;3.90;99.90
9125;DHT22;4597;48.730;9.114;2024-03-08T08:06:27;4.00;99.90
9125;DHT22;4597;48.730;9.114;2024-03-08T08:08:52;4.10;99.90
9125;DHT22;4597;48.730;9.114;2024-03-08T08:11:18;4.30;99.90
9125;DHT22;4597;48.730;9.114;2024-03-08T08:13:43;4.40;99.90
9125;DHT22;4597;48.730;9.114;2024-03-08T08:16:09;4.40;99.90
9125;DHT22;4597;48.730;9.114;2024-03-08T08:18:36;4.50;99.90
9125;DHT22;4597;48.730;9.114;2024-03-08T08:21:02;4.60;99.90
9125;DHT22;4597;48.730;9.114;2024-03-08T08:23:28;4.60;99.90
9125;DHT22;4597;48.730;9.114;2024-03-08T08:25:55;4.70;99.90
9125;DHT22;4597;48.730;9.114;2024-03-08T08:28:21;4.80;99.90
9125;DHT22;4597;48.730;9.114;2024-03-08T08:30:46;4.80;99.90
9125;DHT22;4597;48.730;9.114;2024-03-08T08:33:11;4.80;99.90
9125;DHT22;4597;48.730;9.114;2024-03-08T08:35:38;4.90;99.90
9125;DHT22;4597;48.730;9.114;2024-03-08T08:38:04;5.00;99.90
9125;DHT22;4597;48.730;9.114;2024-03-08T08:40:30;5.00;99.90
9125;DHT22;4597;48.730;9.114;2024-03-08T08:42:57;5.10;99.90
9125;DHT22;4597;48.730;9.114;2024-03-08T08:45:23;5.10;99.90
9125;DHT22;4597;48.730;9.114;2024-03-08T08:47:48;5.20;99.90
9125;DHT22;4597;48.730;9.114;2024-03-08T08:50:15;5.20;99.90
9125;DHT22;4597;48.730;9.114;2024-03-08T08:52:41;5.30;99.90
9125;DHT22;4597;48.730;9.114;2024-03-08T08:55:10;5.30;99.90
9125;DHT22;4597;48.730;9.114;2024-03-08T08:57:40;5.40;99.90
9125;DHT22;4597;48.730;9.114;2024-03-08T09:00:06;5.40;99.90
9125;DHT22;4597;48.730;9.114;2024-03-08T09:02:33;5.40;99.90
9125;DHT22;4597;48.730;9.114;2024-03-08T09:04:58;5.50;99.90
9125;DHT22;4597;48.730;9.114;2024-03-08T09:07:24;5.50;99.90
9125;DHT22;4597;48.730;9.114;2024-03-08T09:09:49;5.60;99.90
9125;DHT22;4597;48.730;9.114;2024-03-08T09:12:15;5.70;99.90
9125;DHT22;4597;48.730;9.114;2024-03-08T09:14:41;5.80;99.90
9125;DHT22;4597;48.730;9.114;2024-03-08T09:17:07;5.80;99.90
9125;DHT22;4597;48.730;9.114;2024-03-08T09:19:36;5.80;99.90
9125;DHT22;4597;48.730;9.114;2024-03-08T09:22:03;5.80;99.90
9125;DHT22;4597;48.730;9.114;2024-03-08T09:24:29;5.80;99.90
9125;DHT22;4597;48.730;9.114;2024-03-08T09:26:56;5.90;99.90
9125;DHT22;4597;48.730;9.114;2024-03-08T09:29:24;5.90;99.90
9125;DHT22;4597;48.730;9.114;2024-03-08T09:31:49;6.00;99.90
9125;DHT22;4597;48.730;9.114;2024-03-08T09:34:15;6.00;99.90
9125;DHT22;4597;48.730;9.114;2024-03-08T09:36:40;6.10;99.90
9125;DHT22;4597;48.730;9.114;2024-03-08T09:39:06;6.10;99.90
9125;DHT22;4597;48.730;9.114;2024-03-08T09:41:33;6.20;99.90
9125;DHT22;4597;48.730;9.114;2024-03-08T09:44:00;6.30;99.90
9125;DHT22;4597;48.730;9.114;2024-03-08T09:46:25;6.30;99.90
9125;DHT22;4597;48.730;9.114;2024-03-08T09:48:53;6.30;99.90
9125;DHT22;4597;48.730;9.114;2024-03-08T09:51:22;6.40;99.90
9125;DHT22;4597;48.730;9.114;2024-03-08T09:53:50;6.50;99.90
9125;DHT22;4597;48.730;9.114;2024-03-08T09:56:15;6.50;99.90
9125;DHT22;4597;48.730;9.114;2024-03-08T09:58:41;6.50;99.90
9125;DHT22;4597;48.730;9.114;2024-03-08T10:01:25;6.60;99.90
9125;DHT22;4597;48.730;9.114;2024-03-08T10:03:52;6.70;99.90
9125;DHT22;4597;48.730;9.114;2024-03-08T10:06:22;6.70;99.90
9125;DHT22;4597;48.730;9.114;2024-03-08T10:08:48;6.80;99.90
9125;DHT22;4597;48.730;9.114;2024-03-08T10:11:14;6.80;99.90
9125;DHT22;4597;48.730;9.114;2024-03-08T10:13:39;6.90;99.90
9125;DHT22;4597;48.730;9.114;2024-03-08T10:16:06;6.90;99.90
9125;DHT22;4597;48.730;9.114;2024-03-08T10:18:32;6.90;99.90
9125;DHT22;4597;48.730;9.114;2024-03-08T10:21:08;6.80;99.90
9125;DHT22;4597;48.730;9.114;2024-03-08T10:23:36;6.80;99.90
9125;DHT22;4597;48.730;9.114;2024-03-08T10:26:18;6.80;99.90
9125;DHT22;4597;48.730;9.114;2024-03-08T10:28:51;6.90;99.90
9125;DHT22;4597;48.730;9.114;2024-03-08T10:31:18;6.90;99.90
9125;DHT22;4597;48.730;9.114;2024-03-08T10:33:48;6.90;99.90
9125;DHT22;4597;48.730;9.114;2024-03-08T10:36:15;7.00;99.90
9125;DHT22;4597;48.730;9.114;2024-03-08T10:38:44;7.10;99.90
9125;DHT22;4597;48.730;9.114;2024-03-08T10:41:12;7.10;99.90
9125;DHT22;4597;48.730;9.114;2024-03-08T10:49:37;7.40;99.90
9125;DHT22;4597;48.730;9.114;2024-03-08T10:52:04;7.50;99.90
9125;DHT22;4597;48.730;9.114;2024-03-08T10:54:31;7.60;99.90
9125;DHT22;4597;48.730;9.114;2024-03-08T10:56:57;7.60;99.90
9125;DHT22;4597;48.730;9.114;2024-03-08T10:59:24;7.70;99.90
9125;DHT22;4597;48.730;9.114;2024-03-08T11:01:52;7.70;99.90
9125;DHT22;4597;48.730;9.114;2024-03-08T11:04:18;7.80;99.90
9125;DHT22;4597;48.730;9.114;2024-03-08T11:06:48;7.90;99.90
9125;DHT22;4597;48.730;9.114;2024-03-08T11:09:35;8.00;99.90
9125;DHT22;4597;48.730;9.114;2024-03-08T11:14:47;8.00;99.90
9125;DHT22;4597;48.730;9.114;2024-03-08T11:17:15;8.20;99.90
9125;DHT22;4597;48.730;9.114;2024-03-08T11:19:47;8.20;99.90
9125;DHT22;4597;48.730;9.114;2024-03-08T11:22:26;8.30;99.90
9125;DHT22;4597;48.730;9.114;2024-03-08T11:24:53;8.40;99.90
9125;DHT22;4597;48.730;9.114;2024-03-08T11:27:18;8.40;99.90
9125;DHT22;4597;48.730;9.114;2024-03-08T11:29:59;8.50;99.90
9125;DHT22;4597;48.730;9.114;2024-03-08T11:32:27;8.50;99.90
9125;DHT22;4597;48.730;9.114;2024-03-08T11:34:53;8.50;99.90
9125;DHT22;4597;48.730;9.114;2024-03-08T11:37:20;8.60;99.90
9125;DHT22;4597;48.730;9.114;2024-03-08T11:39:53;8.70;99.90
9125;DHT22;4597;48.730;9.114;2024-03-08T11:42:24;8.80;99.90
9125;DHT22;4597;48.730;9.114;2024-03-08T11:44:52;8.80;99.90
9125;DHT22;4597;48.730;9.114;2024-03-08T11:47:18;9.00;99.90
9125;DHT22;4597;48.730;9.114;2024-03-08T11:49:44;9.00;99.90
9125;DHT22;4597;48.730;9.114;2024-03-08T11:52:17;9.20;99.90
9125;DHT22;4597;48.730;9.114;2024-03-08T11:54:51;9.20;99.90
9125;DHT22;4597;48.730;9.114;2024-03-08T11:57:18;9.40;99.90
9125;DHT22;4597;48.730;9.114;2024-03-08T11:59:50;9.40;99.90
9125;DHT22;4597;48.730;9.114;2024-03-08T12:02:16;9.50;99.60
9125;DHT22;4597;48.730;9.114;2024-03-08T12:04:41;9.50;99.10
9125;DHT22;4597;48.730;9.114;2024-03-08T12:07:09;9.50;99.50
9125;DHT22;4597;48.730;9.114;2024-03-08T12:09:37;9.50;98.60
9125;DHT22;4597;48.730;9.114;2024-03-08T12:12:03;9.50;99.00
9125;DHT22;4597;48.730;9.114;2024-03-08T12:14:33;9.40;98.80
9125;DHT22;4597;48.730;9.114;2024-03-08T12:16:59;9.40;99.00
9125;DHT22;4597;48.730;9.114;2024-03-08T12:19:27;9.30;98.20
9125;DHT22;4597;48.730;9.114;2024-03-08T12:21:54;9.40;98.50
9125;DHT22;4597;48.730;9.114;2024-03-08T12:24:20;9.40;99.30
9125;DHT22;4597;48.730;9.114;2024-03-08T12:26:47;9.40;99.50
9125;DHT22;4597;48.730;9.114;2024-03-08T12:29:21;9.30;99.90
9125;DHT22;4597;48.730;9.114;2024-03-08T12:31:54;9.30;99.90
9125;DHT22;4597;48.730;9.114;2024-03-08T12:34:20;9.30;99.90
9125;DHT22;4597;48.730;9.114;2024-03-08T12:36:50;9.30;99.90
9125;DHT22;4597;48.730;9.114;2024-03-08T12:39:19;9.20;99.90
9125;DHT22;4597;48.730;9.114;2024-03-08T12:41:48;9.20;99.90
9125;DHT22;4597;48.730;9.114;2024-03-08T12:44:17;9.20;99.90
9125;DHT22;4597;48.730;9.114;2024-03-08T12:46:44;9.20;99.90
9125;DHT22;4597;48.730;9.114;2024-03-08T12:49:10;9.30;99.90
9125;DHT22;4597;48.730;9.114;2024-03-08T12:51:38;9.40;99.90
9125;DHT22;4597;48.730;9.114;2024-03-08T12:54:04;9.50;99.90
9125;DHT22;4597;48.730;9.114;2024-03-08T12:56:33;9.60;99.90
9125;DHT22;4597;48.730;9.114;2024-03-08T12:58:59;9.70;99.90
9125;DHT22;4597;48.730;9.114;2024-03-08T13:01:26;9.70;99.30
9125;DHT22;4597;48.730;9.114;2024-03-08T13:03:52;9.80;99.90
9125;DHT22;4597;48.730;9.114;2024-03-08T13:06:18;9.90;99.50
9125;DHT22;4597;48.730;9.114;2024-03-08T13:08:47;10.00;99.50
9125;DHT22;4597;48.730;9.114;2024-03-08T13:11:13;10.10;99.10
9125;DHT22;4597;48.730;9.114;2024-03-08T13:13:40;10.30;98.00
9125;DHT22;4597;48.730;9.114;2024-03-08T13:16:06;10.40;96.70
9125;DHT22;4597;48.730;9.114;2024-03-08T13:18:37;10.50;96.50
9125;DHT22;4597;48.730;9.114;2024-03-08T13:21:03;10.60;96.30
9125;DHT22;4597;48.730;9.114;2024-03-08T13:23:36;10.70;95.60
9125;DHT22;4597;48.730;9.114;2024-03-08T13:26:08;10.90;94.60
9125;DHT22;4597;48.730;9.114;2024-03-08T13:28:34;11.10;94.90
9125;DHT22;4597;48.730;9.114;2024-03-08T13:31:06;11.20;94.40
9125;DHT22;4597;48.730;9.114;2024-03-08T13:33:35;11.50;92.40
9125;DHT22;4597;48.730;9.114;2024-03-08T13:36:02;11.60;92.70
9125;DHT22;4597;48.730;9.114;2024-03-08T13:38:29;11.80;91.80
9125;DHT22;4597;48.730;9.114;2024-03-08T13:40:57;11.90;91.50
9125;DHT22;4597;48.730;9.114;2024-03-08T13:43:23;12.20;90.20
9125;DHT22;4597;48.730;9.114;2024-03-08T13:45:49;12.30;87.80
9125;DHT22;4597;48.730;9.114;2024-03-08T13:48:15;12.50;88.30
9125;DHT22;4597;48.730;9.114;2024-03-08T13:50:41;12.70;85.20
9125;DHT22;4597;48.730;9.114;2024-03-08T13:53:07;12.80;81.80
9125;DHT22;4597;48.730;9.114;2024-03-08T13:55:35;13.10;80.70
9125;DHT22;4597;48.730;9.114;2024-03-08T13:58:00;13.10;78.60
9125;DHT22;4597;48.730;9.114;2024-03-08T14:00:26;13.30;77.80
9125;DHT22;4597;48.730;9.114;2024-03-08T14:02:58;13.60;76.50
9125;DHT22;4597;48.730;9.114;2024-03-08T14:05:24;13.80;73.40
9125;DHT22;4597;48.730;9.114;2024-03-08T14:07:49;14.00;71.70
9125;DHT22;4597;48.730;9.114;2024-03-08T14:10:15;14.20;70.10
9125;DHT22;4597;48.730;9.114;2024-03-08T14:12:41;14.40;67.30
9125;DHT22;4597;48.730;9.114;2024-03-08T14:15:09;14.50;66.60
9125;DHT22;4597;48.730;9.114;2024-03-08T14:17:36;14.80;67.70
9125;DHT22;4597;48.730;9.114;2024-03-08T14:20:03;15.00;64.00
9125;DHT22;4597;48.730;9.114;2024-03-08T14:22:29;15.10;62.80
9125;DHT22;4597;48.730;9.114;2024-03-08T14:24:56;15.20;59.60
9125;DHT22;4597;48.730;9.114;2024-03-08T14:27:22;15.30;57.50
9125;DHT22;4597;48.730;9.114;2024-03-08T14:29:48;15.40;56.80
9125;DHT22;4597;48.730;9.114;2024-03-08T14:32:13;15.60;54.90
9125;DHT22;4597;48.730;9.114;2024-03-08T14:34:39;15.70;55.30
9125;DHT22;4597;48.730;9.114;2024-03-08T14:37:04;15.80;54.30
9125;DHT22;4597;48.730;9.114;2024-03-08T14:39:33;16.00;54.00
9125;DHT22;4597;48.730;9.114;2024-03-08T14:42:00;16.30;52.80
9125;DHT22;4597;48.730;9.114;2024-03-08T14:44:25;16.60;50.60
9125;DHT22;4597;48.730;9.114;2024-03-08T14:46:52;16.70;49.90
9125;DHT22;4597;48.730;9.114;2024-03-08T14:49:18;16.80;48.70
9125;DHT22;4597;48.730;9.114;2024-03-08T14:51:44;16.80;47.50
9125;DHT22;4597;48.730;9.114;2024-03-08T14:54:10;16.80;46.00
9125;DHT22;4597;48.730;9.114;2024-03-08T14:56:36;17.10;47.00
9125;DHT22;4597;48.730;9.114;2024-03-08T14:59:02;17.40;46.00
9125;DHT22;4597;48.730;9.114;2024-03-08T15:01:30;17.70;44.60
9125;DHT22;4597;48.730;9.114;2024-03-08T15:03:58;17.80;44.50
9125;DHT22;4597;48.730;9.114;2024-03-08T15:06:29;18.00;42.40
9125;DHT22;4597;48.730;9.114;2024-03-08T15:08:56;18.20;41.90
9125;DHT22;4597;48.730;9.114;2024-03-08T15:11:23;18.40;41.60
9125;DHT22;4597;48.730;9.114;2024-03-08T15:13:53;18.60;40.30
9125;DHT22;4597;48.730;9.114;2024-03-08T15:16:19;19.00;38.90
9125;DHT22;4597;48.730;9.114;2024-03-08T15:18:46;19.20;39.30
9125;DHT22;4597;48.730;9.114;2024-03-08T15:21:17;19.50;38.00
9125;DHT22;4597;48.730;9.114;2024-03-08T15:23:45;19.70;36.10
9125;DHT22;4597;48.730;9.114;2024-03-08T15:26:16;19.90;34.80
9125;DHT22;4597;48.730;9.114;2024-03-08T15:28:42;20.20;35.10
9125;DHT22;4597;48.730;9.114;2024-03-08T15:31:10;20.50;33.20
9125;DHT22;4597;48.730;9.114;2024-03-08T15:33:38;20.50;32.60
9125;DHT22;4597;48.730;9.114;2024-03-08T15:36:12;20.80;32.30
9125;DHT22;4597;48.730;9.114;2024-03-08T15:38:41;20.90;32.20
9125;DHT22;4597;48.730;9.114;2024-03-08T15:41:09;21.50;30.80
9125;DHT22;4597;48.730;9.114;2024-03-08T15:43:41;22.20;29.40
9125;DHT22;4597;48.730;9.114;2024-03-08T15:46:07;23.10;27.50
9125;DHT22;4597;48.730;9.114;2024-03-08T15:48:33;23.90;25.90
9125;DHT22;4597;48.730;9.114;2024-03-08T15:51:01;24.80;24.50
9125;DHT22;4597;48.730;9.114;2024-03-08T15:53:34;25.50;22.90
9125;DHT22;4597;48.730;9.114;2024-03-08T15:56:04;26.20;21.30
9125;DHT22;4597;48.730;9.114;2024-03-08T15:58:33;26.60;20.30
9125;DHT22;4597;48.730;9.114;2024-03-08T16:01:03;26.80;19.50
9125;DHT22;4597;48.730;9.114;2024-03-08T16:03:31;26.80;19.30
9125;DHT22;4597;48.730;9.114;2024-03-08T16:05:57;26.80;18.90
9125;DHT22;4597;48.730;9.114;2024-03-08T16:08:23;26.60;18.40
9125;DHT22;4597;48.730;9.114;2024-03-08T16:10:51;26.50;18.80
9125;DHT22;4597;48.730;9.114;2024-03-08T16:13:23;26.50;18.60
9125;DHT22;4597;48.730;9.114;2024-03-08T16:15:51;26.30;18.60
9125;DHT22;4597;48.730;9.114;2024-03-08T16:18:18;26.20;18.70
9125;DHT22;4597;48.730;9.114;2024-03-08T16:20:47;25.90;19.10
9125;DHT22;4597;48.730;9.114;2024-03-08T16:23:13;25.60;19.20